Port Hardy Airport
CYZT : now visible

Airfield :











YOU CAN JOIN US ON...

 
LOGIN :

Register | Disclaimer

   EN    FR    IT 

 









Legend :    VFR   Marginal VFR   IFR   Intensive IFR   Very Intensive IFR
Visi :
Ceiling :
>= 8 km
>= 3000ft
5 to 8 km
1000 to 3000 ft
1500m to 5 km
500 to 1000 ft
800 to 1500m
200 to 500 ft
< 800m
< 200 ft
Symbols :   Thunderstorms  Fog  Heavy snow  Heavy precipitations  Wind > 20 kt






- Airport Elevation : 71 ft
- IATA code : YZT


CYZT - Port Hardy

CURRENT METAR :
  • 052000Z 15003KT 110V170 20SM FEW030 BKN160 04/01 A3001 RMK SC1AC6 SLP165

EXPIRED METARs :
  • 051900Z 11003KT 060V170 20SM FEW020 BKN120 03/M00 A3002 RMK SF1AC7 SF TR SLP168
  • 051800Z 22002KT 20SM SCT150 BKN160 01/00 A3001 RMK AC4AC3 SLP163

TAF TAF CYZT
Valid from the 05 at 19:00 until the 06 at 07:00 UTC


051838Z 0519/0607 VRB03KT P6SM FEW008 BKN150
FM052100 10008KT P6SM SCT050 OVC150
TEMPO 0521/0524 P6SM -RA OVC050
FM060000 11012KT P6SM -RA SCT020 OVC040
TEMPO 0600/0607 5SM -RA BR FEW008 BKN020 OVC040 RMK NXT FCST BY 060100Z



MET'MAP, your aeronautical weather chart ! - Copyright ORBIFLY December 2007 - Disclaimer

ORBIFLY MET'MAP TEAM :

Programming & Development : Alexandra Zaïnal
Concept & original design : Baudouin d'Aumeries
Assistance for programming : Marc-Olivier Méhu
Technical & hardware support : Manuel Goepfert

Contact : metmap@orbifly.com




SOURCES & CREDITS :

   NOAA       Earth
Advisory